Pirane, Argentina
Current Conditions -  °F | °C
As of 3:00 PM on Sunday 23 Nov 2014 (Local Time) from SARF Reporting Station
Clear Clear  
Wind Chill: 29°   Ceiling: Unl
Heat Index: 29°   Visibility: 6mi
Dew Point: 15°   Wind: 10mph
Humidity: 42%   Direction: 140°SE
Pressure: 29.85"   Gusts: NA
Location:  25.72°S, 59.1°W
Report Text: SARF 231800Z 14009KT CAVOK 29/15 Q1011
Loading
Personal Weather Stations






























Interactive Weather Map New forecast layout! Learn more

10-Day Weather Forecast

Advertisements
Track Severe Weather on mobile